20:49
Airports
History
Links
Donate
Help keep this website running!
PayPal
Bitcoin
This page is community maintained. The information is intended for PC simulator navigation or reference.
Always use approved charts for navigation.
1FD2
Bass Limited
Bass Limited (1FD2)
Madison, Florida, United States (32350)
4
Lat/Lng:30° 37' 9.75" N / 83° 18' 14.53" W
30.619374 / -83.304037
Elevation:100'ft / 30mMSL
ID / ICAO:1FD2
Runways:1
Longest:09-27
Grass 596m / 1,954ft
Nearby Weather19:53 GMT 2017-09-19
Nearby weather at KVLD, Valdosta Rgnl located 11.3 nautical miles from 1FD2
Altimeter: 29.93
Visibility: 10.0 statute miles
Wind: 0 knots (from 000°)
Temp: 31°c / 88°f
Humidity: 55.4%

METAR: KVLD 191953Z 00000KT 10SM BKN090 31/21 A2993 RMK AO2 SLP142 T03060211

(Powered by phpweather)
Nearby VORs <50NM
Nearby NDBs
Runway 09 / 27
Dimensions:595.5 x 45.7m 1954' x 150'ft
Surface:Grass
Runway 09 [A]Runway 27 [B]
Heading:088°TH 268°TH
Lat:
Lng:
30° 37' 9.41"N
83° 18' 25.88"W
30° 37' 10.09"N
83° 18' 3.18"W
User Notes and Comments
30° 37' 9.75" N / 83° 18' 14.53" W
Distance To
Airport ID:
Nearby Airports
(R) Estherbrook Aerodrome 1.1 NM
7FD9 ENE 71°
(R) Bird Field 2.7 NM
FA11 E 85°
4 Rocky Ford 9.6 NM
7FD8 SSW 212°
(R) Squires Aviation Ranch 9.7 NM
FD63 SE 139°
4 Blue Springs 9.9 NM
FD95 SSE 161°
(C) Valdosta Rgnl 11.3 NM
KVLD ( WX ) N
(R) Madison County 11.9 NM
99FL S 181°
VFR Chart
Flight Planning at SkyVector.com